sensor_id;sensor_type;location;lat;lon;timestamp;pressure;altitude;pressure_sealevel;temperature;humidity
20755;BME280;26385;48.470;7.938;2022-08-19T00:00:30;99547.16;;;21.81;98.12
20755;BME280;26385;48.470;7.938;2022-08-19T00:02:56;99546.88;;;21.89;97.81
20755;BME280;26385;48.470;7.938;2022-08-19T00:05:21;99551.38;;;21.85;97.13
20755;BME280;26385;48.470;7.938;2022-08-19T00:07:47;99546.69;;;21.69;98.08
20755;BME280;26385;48.470;7.938;2022-08-19T00:10:15;99538.19;;;21.60;99.34
20755;BME280;26385;48.470;7.938;2022-08-19T00:12:40;99530.47;;;21.56;99.77
20755;BME280;26385;48.470;7.938;2022-08-19T00:15:08;99527.75;;;21.57;100.00
20755;BME280;26385;48.470;7.938;2022-08-19T00:17:37;99521.50;;;21.61;99.46
20755;BME280;26385;48.470;7.938;2022-08-19T00:20:03;99526.53;;;21.68;99.48
20755;BME280;26385;48.470;7.938;2022-08-19T00:22:28;99528.84;;;21.77;98.74
20755;BME280;26385;48.470;7.938;2022-08-19T00:24:54;99533.78;;;21.86;97.67
20755;BME280;26385;48.470;7.938;2022-08-19T00:27:19;99539.13;;;21.84;97.59
20755;BME280;26385;48.470;7.938;2022-08-19T00:29:44;99545.38;;;21.82;97.68
20755;BME280;26385;48.470;7.938;2022-08-19T00:32:09;99556.94;;;21.78;97.32
20755;BME280;26385;48.470;7.938;2022-08-19T00:34:35;99548.28;;;21.74;97.64
20755;BME280;26385;48.470;7.938;2022-08-19T00:37:01;99548.84;;;21.57;98.81
20755;BME280;26385;48.470;7.938;2022-08-19T00:39:26;99556.75;;;21.57;99.14
20755;BME280;26385;48.470;7.938;2022-08-19T00:41:51;99546.00;;;21.63;98.75
20755;BME280;26385;48.470;7.938;2022-08-19T00:46:48;99528.56;;;21.59;98.91
20755;BME280;26385;48.470;7.938;2022-08-19T00:51:47;99545.22;;;21.61;99.35
20755;BME280;26385;48.470;7.938;2022-08-19T00:54:14;99543.53;;;21.59;99.05
20755;BME280;26385;48.470;7.938;2022-08-19T00:56:39;99539.72;;;21.68;97.46
20755;BME280;26385;48.470;7.938;2022-08-19T00:59:06;99533.50;;;21.69;97.70
20755;BME280;26385;48.470;7.938;2022-08-19T01:01:39;99532.03;;;21.61;97.39
20755;BME280;26385;48.470;7.938;2022-08-19T01:04:06;99532.91;;;21.62;98.44
20755;BME280;26385;48.470;7.938;2022-08-19T01:06:32;99529.47;;;21.58;98.07
20755;BME280;26385;48.470;7.938;2022-08-19T01:08:59;99539.09;;;21.59;98.10
20755;BME280;26385;48.470;7.938;2022-08-19T01:11:27;99536.47;;;21.59;98.12
20755;BME280;26385;48.470;7.938;2022-08-19T01:13:53;99541.66;;;21.62;97.46
20755;BME280;26385;48.470;7.938;2022-08-19T01:16:21;99538.09;;;21.63;97.53
20755;BME280;26385;48.470;7.938;2022-08-19T01:18:47;99532.06;;;21.60;97.62
20755;BME280;26385;48.470;7.938;2022-08-19T01:21:44;99528.81;;;21.52;98.70
20755;BME280;26385;48.470;7.938;2022-08-19T01:24:13;99526.97;;;21.55;98.59
20755;BME280;26385;48.470;7.938;2022-08-19T01:26:42;99536.66;;;21.55;97.78
20755;BME280;26385;48.470;7.938;2022-08-19T01:29:08;99528.81;;;21.53;97.91
20755;BME280;26385;48.470;7.938;2022-08-19T01:31:35;99524.13;;;21.61;97.29
20755;BME280;26385;48.470;7.938;2022-08-19T01:34:02;99531.97;;;21.63;97.19
20755;BME280;26385;48.470;7.938;2022-08-19T01:36:34;99539.34;;;21.53;97.77
20755;BME280;26385;48.470;7.938;2022-08-19T01:39:01;99526.38;;;21.47;97.61
20755;BME280;26385;48.470;7.938;2022-08-19T01:41:27;99528.22;;;21.44;99.12
20755;BME280;26385;48.470;7.938;2022-08-19T01:43:53;99525.19;;;21.56;97.83
20755;BME280;26385;48.470;7.938;2022-08-19T01:46:19;99522.16;;;21.42;98.25
20755;BME280;26385;48.470;7.938;2022-08-19T01:48:45;99529.44;;;21.33;98.21
20755;BME280;26385;48.470;7.938;2022-08-19T01:51:11;99520.50;;;21.39;98.99
20755;BME280;26385;48.470;7.938;2022-08-19T01:53:37;99519.84;;;21.32;98.79
20755;BME280;26385;48.470;7.938;2022-08-19T01:56:03;99515.41;;;21.33;98.84
20755;BME280;26385;48.470;7.938;2022-08-19T01:58:36;99517.97;;;21.36;99.10
20755;BME280;26385;48.470;7.938;2022-08-19T02:01:04;99514.31;;;21.40;98.54
20755;BME280;26385;48.470;7.938;2022-08-19T02:03:30;99522.47;;;21.32;98.21
20755;BME280;26385;48.470;7.938;2022-08-19T02:05:59;99514.69;;;21.29;98.90
20755;BME280;26385;48.470;7.938;2022-08-19T02:08:26;99512.91;;;21.30;99.48
20755;BME280;26385;48.470;7.938;2022-08-19T02:10:52;99498.69;;;21.34;99.40
20755;BME280;26385;48.470;7.938;2022-08-19T02:13:18;99500.38;;;21.37;98.18
20755;BME280;26385;48.470;7.938;2022-08-19T02:15:43;99502.06;;;21.39;98.40
20755;BME280;26385;48.470;7.938;2022-08-19T02:18:08;99503.34;;;21.52;97.57
20755;BME280;26385;48.470;7.938;2022-08-19T02:20:34;99508.78;;;21.48;97.31
20755;BME280;26385;48.470;7.938;2022-08-19T02:23:00;99510.44;;;21.50;97.01
20755;BME280;26385;48.470;7.938;2022-08-19T02:25:26;99515.50;;;21.56;99.57
20755;BME280;26385;48.470;7.938;2022-08-19T02:27:51;99520.66;;;21.59;97.31
20755;BME280;26385;48.470;7.938;2022-08-19T02:30:17;99525.59;;;21.69;97.39
20755;BME280;26385;48.470;7.938;2022-08-19T02:32:44;99521.91;;;21.74;96.29
20755;BME280;26385;48.470;7.938;2022-08-19T02:35:10;99521.78;;;21.77;95.78
20755;BME280;26385;48.470;7.938;2022-08-19T02:37:35;99521.44;;;21.88;95.90
20755;BME280;26385;48.470;7.938;2022-08-19T02:40:20;99525.72;;;21.90;93.78
20755;BME280;26385;48.470;7.938;2022-08-19T02:42:45;99517.06;;;21.87;93.38
20755;BME280;26385;48.470;7.938;2022-08-19T02:45:12;99518.88;;;21.60;95.09
20755;BME280;26385;48.470;7.938;2022-08-19T02:47:38;99519.44;;;21.70;95.20
20755;BME280;26385;48.470;7.938;2022-08-19T02:50:04;99522.28;;;21.63;94.90
20755;BME280;26385;48.470;7.938;2022-08-19T02:52:32;99521.50;;;21.61;95.44
20755;BME280;26385;48.470;7.938;2022-08-19T02:54:57;99521.56;;;21.58;95.50
20755;BME280;26385;48.470;7.938;2022-08-19T02:57:23;99521.63;;;21.57;96.00
20755;BME280;26385;48.470;7.938;2022-08-19T02:59:49;99521.63;;;21.57;95.64
20755;BME280;26385;48.470;7.938;2022-08-19T03:02:15;99518.94;;;21.58;95.45
20755;BME280;26385;48.470;7.938;2022-08-19T03:04:40;99521.50;;;21.61;95.32
20755;BME280;26385;48.470;7.938;2022-08-19T03:07:06;99520.63;;;21.61;95.49
20755;BME280;26385;48.470;7.938;2022-08-19T03:09:31;99524.00;;;21.64;94.75
20755;BME280;26385;48.470;7.938;2022-08-19T03:11:57;99528.41;;;21.64;94.60
20755;BME280;26385;48.470;7.938;2022-08-19T03:14:22;99525.78;;;21.64;94.03
20755;BME280;26385;48.470;7.938;2022-08-19T03:16:50;99526.09;;;21.55;94.55
20755;BME280;26385;48.470;7.938;2022-08-19T03:19:19;99526.25;;;21.50;94.84
20755;BME280;26385;48.470;7.938;2022-08-19T03:21:46;99527.97;;;21.51;95.80
20755;BME280;26385;48.470;7.938;2022-08-19T03:24:12;99523.41;;;21.56;95.07
20755;BME280;26385;48.470;7.938;2022-08-19T03:26:40;99525.84;;;21.62;94.58
20755;BME280;26385;48.470;7.938;2022-08-19T03:29:06;99523.28;;;21.61;94.00
20755;BME280;26385;48.470;7.938;2022-08-19T03:31:32;99530.53;;;21.54;95.29
20755;BME280;26385;48.470;7.938;2022-08-19T03:33:57;99536.47;;;21.59;94.96
20755;BME280;26385;48.470;7.938;2022-08-19T03:36:25;99544.56;;;21.55;94.83
20755;BME280;26385;48.470;7.938;2022-08-19T03:38:54;99544.44;;;21.58;94.47
20755;BME280;26385;48.470;7.938;2022-08-19T03:41:25;99545.25;;;21.60;94.66
20755;BME280;26385;48.470;7.938;2022-08-19T03:43:52;99553.81;;;21.67;94.23
20755;BME280;26385;48.470;7.938;2022-08-19T03:46:20;99557.47;;;21.62;94.37
20755;BME280;26385;48.470;7.938;2022-08-19T03:48:47;99558.47;;;21.58;94.88
20755;BME280;26385;48.470;7.938;2022-08-19T03:51:18;99561.31;;;21.52;95.24
20755;BME280;26385;48.470;7.938;2022-08-19T03:53:45;99557.66;;;21.56;95.54
20755;BME280;26385;48.470;7.938;2022-08-19T03:56:11;99553.75;;;21.68;96.37
20755;BME280;26385;48.470;7.938;2022-08-19T03:58:38;99556.78;;;21.82;94.80
20755;BME280;26385;48.470;7.938;2022-08-19T04:01:07;99561.50;;;21.98;93.46
20755;BME280;26385;48.470;7.938;2022-08-19T04:03:33;99551.47;;;22.09;92.01
20755;BME280;26385;48.470;7.938;2022-08-19T04:08:44;99556.69;;;22.10;92.13
20755;BME280;26385;48.470;7.938;2022-08-19T04:11:12;99563.56;;;22.14;91.95
20755;BME280;26385;48.470;7.938;2022-08-19T04:13:38;99554.09;;;22.09;90.80
20755;BME280;26385;48.470;7.938;2022-08-19T04:16:04;99554.34;;;22.01;92.11
20755;BME280;26385;48.470;7.938;2022-08-19T04:18:30;99558.22;;;21.91;91.16
20755;BME280;26385;48.470;7.938;2022-08-19T04:20:56;99554.94;;;21.84;92.05
20755;BME280;26385;48.470;7.938;2022-08-19T04:23:22;99559.41;;;21.82;92.14
20755;BME280;26385;48.470;7.938;2022-08-19T04:25:48;99565.75;;;21.77;92.45
20755;BME280;26385;48.470;7.938;2022-08-19T04:28:13;99564.16;;;21.73;92.89
20755;BME280;26385;48.470;7.938;2022-08-19T04:30:41;99568.66;;;21.69;92.77
20755;BME280;26385;48.470;7.938;2022-08-19T04:33:07;99566.91;;;21.70;92.91
20755;BME280;26385;48.470;7.938;2022-08-19T04:35:40;99572.50;;;21.59;93.64
20755;BME280;26385;48.470;7.938;2022-08-19T04:38:07;99570.00;;;21.56;93.56
20755;BME280;26385;48.470;7.938;2022-08-19T04:40:32;99578.81;;;21.55;93.94
20755;BME280;26385;48.470;7.938;2022-08-19T04:43:17;99580.66;;;21.51;94.61
20755;BME280;26385;48.470;7.938;2022-08-19T04:45:44;99577.78;;;21.59;93.07
20755;BME280;26385;48.470;7.938;2022-08-19T04:48:11;99579.72;;;21.54;93.75
20755;BME280;26385;48.470;7.938;2022-08-19T04:50:39;99578.16;;;21.48;94.04
20755;BME280;26385;48.470;7.938;2022-08-19T04:53:05;99577.44;;;21.43;93.85
20755;BME280;26385;48.470;7.938;2022-08-19T04:55:30;99584.34;;;21.47;94.39
20755;BME280;26385;48.470;7.938;2022-08-19T04:57:56;99587.97;;;21.43;94.08
20755;BME280;26385;48.470;7.938;2022-08-19T05:00:21;99579.19;;;21.43;94.44
20755;BME280;26385;48.470;7.938;2022-08-19T05:02:47;99584.34;;;21.47;94.05
20755;BME280;26385;48.470;7.938;2022-08-19T05:05:14;99581.75;;;21.46;93.89
20755;BME280;26385;48.470;7.938;2022-08-19T05:07:39;99584.44;;;21.44;93.55
20755;BME280;26385;48.470;7.938;2022-08-19T05:10:06;99595.00;;;21.44;93.71
20755;BME280;26385;48.470;7.938;2022-08-19T05:12:33;99588.88;;;21.42;94.20
20755;BME280;26385;48.470;7.938;2022-08-19T05:14:58;99597.00;;;21.36;94.49
20755;BME280;26385;48.470;7.938;2022-08-19T05:17:25;99593.66;;;21.31;94.90
20755;BME280;26385;48.470;7.938;2022-08-19T05:19:51;99596.19;;;21.34;94.84
20755;BME280;26385;48.470;7.938;2022-08-19T05:22:34;99604.00;;;21.37;94.41
20755;BME280;26385;48.470;7.938;2022-08-19T05:25:10;99608.34;;;21.38;93.95
20755;BME280;26385;48.470;7.938;2022-08-19T05:27:37;99614.44;;;21.40;94.02
20755;BME280;26385;48.470;7.938;2022-08-19T05:30:03;99611.03;;;21.37;94.08
20755;BME280;26385;48.470;7.938;2022-08-19T05:32:28;99624.16;;;21.38;94.01
20755;BME280;26385;48.470;7.938;2022-08-19T05:34:54;99625.94;;;21.38;94.00
20755;BME280;26385;48.470;7.938;2022-08-19T05:37:19;99627.72;;;21.35;94.34
20755;BME280;26385;48.470;7.938;2022-08-19T05:39:45;99631.28;;;21.34;94.69
20755;BME280;26385;48.470;7.938;2022-08-19T05:42:11;99637.34;;;21.38;94.87
20755;BME280;26385;48.470;7.938;2022-08-19T05:44:40;99642.94;;;21.26;94.81
20755;BME280;26385;48.470;7.938;2022-08-19T05:47:11;99626.59;;;21.44;93.65
20755;BME280;26385;48.470;7.938;2022-08-19T05:49:37;99627.72;;;21.37;94.09
20755;BME280;26385;48.470;7.938;2022-08-19T05:52:08;99633.13;;;21.32;94.80
20755;BME280;26385;48.470;7.938;2022-08-19T05:54:34;99635.00;;;21.55;92.73
20755;BME280;26385;48.470;7.938;2022-08-19T05:57:01;99631.91;;;21.43;93.50
20755;BME280;26385;48.470;7.938;2022-08-19T05:59:27;99632.47;;;21.52;93.71
20755;BME280;26385;48.470;7.938;2022-08-19T06:01:52;99628.34;;;21.44;93.71
20755;BME280;26385;48.470;7.938;2022-08-19T06:04:21;99639.91;;;21.40;94.89
20755;BME280;26385;48.470;7.938;2022-08-19T06:06:48;99636.06;;;21.50;93.87
20755;BME280;26385;48.470;7.938;2022-08-19T06:09:14;99637.91;;;21.48;93.83
20755;BME280;26385;48.470;7.938;2022-08-19T06:11:43;99644.16;;;21.44;93.73
20755;BME280;26385;48.470;7.938;2022-08-19T06:14:12;99639.56;;;21.50;93.76
20755;BME280;26385;48.470;7.938;2022-08-19T06:16:39;99642.41;;;21.44;93.55
20755;BME280;26385;48.470;7.938;2022-08-19T06:19:10;99651.81;;;21.51;93.09
20755;BME280;26385;48.470;7.938;2022-08-19T06:21:36;99658.22;;;21.44;93.47
20755;BME280;26385;48.470;7.938;2022-08-19T06:24:04;99661.09;;;21.37;94.27
20755;BME280;26385;48.470;7.938;2022-08-19T06:26:29;99660.66;;;21.50;92.72
20755;BME280;26385;48.470;7.938;2022-08-19T06:28:55;99664.09;;;21.52;93.04
20755;BME280;26385;48.470;7.938;2022-08-19T06:31:26;99657.94;;;21.52;93.02
20755;BME280;26385;48.470;7.938;2022-08-19T06:33:52;99662.47;;;21.48;93.40
20755;BME280;26385;48.470;7.938;2022-08-19T06:36:18;99681.66;;;21.52;93.16
20755;BME280;26385;48.470;7.938;2022-08-19T06:38:44;99680.81;;;21.51;92.88
20755;BME280;26385;48.470;7.938;2022-08-19T06:41:09;99686.06;;;21.51;93.16
20755;BME280;26385;48.470;7.938;2022-08-19T06:43:35;99679.25;;;21.46;94.01
20755;BME280;26385;48.470;7.938;2022-08-19T06:46:01;99675.66;;;21.48;93.96
20755;BME280;26385;48.470;7.938;2022-08-19T06:48:28;99679.25;;;21.46;93.85
20755;BME280;26385;48.470;7.938;2022-08-19T06:50:54;99683.50;;;21.50;94.14
20755;BME280;26385;48.470;7.938;2022-08-19T06:53:19;99678.16;;;21.51;93.70
20755;BME280;26385;48.470;7.938;2022-08-19T06:55:45;99691.47;;;21.48;93.15
20755;BME280;26385;48.470;7.938;2022-08-19T06:58:10;99686.00;;;21.54;93.72
20755;BME280;26385;48.470;7.938;2022-08-19T07:00:36;99693.97;;;21.53;93.44
20755;BME280;26385;48.470;7.938;2022-08-19T07:03:02;99684.97;;;21.58;93.02
20755;BME280;26385;48.470;7.938;2022-08-19T07:05:28;99691.88;;;21.62;92.93
20755;BME280;26385;48.470;7.938;2022-08-19T07:07:53;99684.06;;;21.59;93.52
20755;BME280;26385;48.470;7.938;2022-08-19T07:10:18;99689.34;;;21.59;93.38
20755;BME280;26385;48.470;7.938;2022-08-19T07:12:44;99687.53;;;21.61;93.11
20755;BME280;26385;48.470;7.938;2022-08-19T07:15:10;99677.00;;;21.61;93.13
20755;BME280;26385;48.470;7.938;2022-08-19T07:17:36;99680.31;;;21.67;92.99
20755;BME280;26385;48.470;7.938;2022-08-19T07:20:05;99678.41;;;21.72;92.89
20755;BME280;26385;48.470;7.938;2022-08-19T07:22:36;99681.78;;;21.75;92.56
20755;BME280;26385;48.470;7.938;2022-08-19T07:25:02;99681.75;;;21.77;92.04
20755;BME280;26385;48.470;7.938;2022-08-19T07:27:28;99679.97;;;21.77;92.91
20755;BME280;26385;48.470;7.938;2022-08-19T07:29:54;99673.88;;;21.75;92.59
20755;BME280;26385;48.470;7.938;2022-08-19T07:32:19;99679.81;;;21.82;92.94
20755;BME280;26385;48.470;7.938;2022-08-19T07:34:45;99673.28;;;21.93;92.30
20755;BME280;26385;48.470;7.938;2022-08-19T07:37:10;99672.47;;;21.91;92.31
20755;BME280;26385;48.470;7.938;2022-08-19T07:39:37;99671.56;;;21.92;92.22
20755;BME280;26385;48.470;7.938;2022-08-19T07:42:07;99673.19;;;21.97;92.03
20755;BME280;26385;48.470;7.938;2022-08-19T07:44:34;99674.75;;;22.02;91.83
20755;BME280;26385;48.470;7.938;2022-08-19T07:46:59;99670.06;;;22.12;91.21
20755;BME280;26385;48.470;7.938;2022-08-19T07:49:26;99669.84;;;22.18;90.25
20755;BME280;26385;48.470;7.938;2022-08-19T07:51:57;99663.44;;;22.25;89.87
20755;BME280;26385;48.470;7.938;2022-08-19T07:54:24;99662.38;;;22.31;89.13
20755;BME280;26385;48.470;7.938;2022-08-19T07:56:50;99658.47;;;22.41;88.86
20755;BME280;26385;48.470;7.938;2022-08-19T07:59:16;99665.19;;;22.50;88.41
20755;BME280;26385;48.470;7.938;2022-08-19T08:01:43;99666.84;;;22.52;88.10
20755;BME280;26385;48.470;7.938;2022-08-19T08:04:08;99674.69;;;22.55;87.69
20755;BME280;26385;48.470;7.938;2022-08-19T08:06:53;99679.91;;;22.57;86.08
20755;BME280;26385;48.470;7.938;2022-08-19T08:09:39;99672.97;;;22.54;85.13
20755;BME280;26385;48.470;7.938;2022-08-19T08:12:26;99677.41;;;22.52;85.39
20755;BME280;26385;48.470;7.938;2022-08-19T08:14:55;99674.75;;;22.54;85.14
20755;BME280;26385;48.470;7.938;2022-08-19T08:17:23;99669.34;;;22.57;85.17
20755;BME280;26385;48.470;7.938;2022-08-19T08:19:49;99672.63;;;22.63;85.55
20755;BME280;26385;48.470;7.938;2022-08-19T08:22:17;99675.03;;;22.69;85.02
20755;BME280;26385;48.470;7.938;2022-08-19T08:25:08;99677.63;;;22.71;83.39
20755;BME280;26385;48.470;7.938;2022-08-19T08:27:38;99677.38;;;22.77;83.97
20755;BME280;26385;48.470;7.938;2022-08-19T08:30:06;99676.31;;;22.83;83.46
20755;BME280;26385;48.470;7.938;2022-08-19T08:32:34;99697.19;;;22.90;83.09
20755;BME280;26385;48.470;7.938;2022-08-19T08:35:00;99697.91;;;22.94;82.48
20755;BME280;26385;48.470;7.938;2022-08-19T08:37:25;99706.59;;;22.97;82.04
20755;BME280;26385;48.470;7.938;2022-08-19T08:39:50;99703.91;;;22.99;82.09
20755;BME280;26385;48.470;7.938;2022-08-19T08:42:32;99715.19;;;23.02;81.35
20755;BME280;26385;48.470;7.938;2022-08-19T08:45:03;99712.53;;;23.04;80.65
20755;BME280;26385;48.470;7.938;2022-08-19T08:47:35;99718.53;;;23.08;80.46
20755;BME280;26385;48.470;7.938;2022-08-19T08:50:18;99726.41;;;23.09;80.16
20755;BME280;26385;48.470;7.938;2022-08-19T08:52:47;99722.84;;;23.10;78.28
20755;BME280;26385;48.470;7.938;2022-08-19T08:55:17;99719.41;;;23.08;77.30
20755;BME280;26385;48.470;7.938;2022-08-19T09:00:26;99724.63;;;23.10;74.16
20755;BME280;26385;48.470;7.938;2022-08-19T09:02:53;99725.97;;;23.21;74.18
20755;BME280;26385;48.470;7.938;2022-08-19T09:05:20;99725.91;;;23.23;73.23
20755;BME280;26385;48.470;7.938;2022-08-19T09:08:04;99725.72;;;23.27;73.24
20755;BME280;26385;48.470;7.938;2022-08-19T09:10:36;99726.84;;;23.44;73.23
20755;BME280;26385;48.470;7.938;2022-08-19T09:16:10;99731.44;;;23.62;71.42
20755;BME280;26385;48.470;7.938;2022-08-19T09:18:51;99736.81;;;23.59;70.69
20755;BME280;26385;48.470;7.938;2022-08-19T09:21:21;99737.47;;;23.66;70.75
20755;BME280;26385;48.470;7.938;2022-08-19T09:23:48;99745.22;;;23.70;71.17
20755;BME280;26385;48.470;7.938;2022-08-19T09:26:20;99740.78;;;23.71;70.58
20755;BME280;26385;48.470;7.938;2022-08-19T09:28:47;99750.50;;;23.70;70.56
20755;BME280;26385;48.470;7.938;2022-08-19T09:31:21;99748.53;;;23.75;70.14
20755;BME280;26385;48.470;7.938;2022-08-19T09:33:48;99742.25;;;23.78;70.18
20755;BME280;26385;48.470;7.938;2022-08-19T09:36:16;99743.00;;;23.81;69.93
20755;BME280;26385;48.470;7.938;2022-08-19T09:38:43;99739.22;;;23.89;70.05
20755;BME280;26385;48.470;7.938;2022-08-19T09:41:13;99741.56;;;23.95;69.58
20755;BME280;26385;48.470;7.938;2022-08-19T09:43:39;99745.69;;;24.02;68.98
20755;BME280;26385;48.470;7.938;2022-08-19T09:46:06;99733.94;;;24.09;67.86
20755;BME280;26385;48.470;7.938;2022-08-19T09:48:38;99744.53;;;24.09;67.25
20755;BME280;26385;48.470;7.938;2022-08-19T09:51:05;99735.28;;;24.19;68.01
20755;BME280;26385;48.470;7.938;2022-08-19T09:53:33;99738.59;;;24.24;67.74
20755;BME280;26385;48.470;7.938;2022-08-19T09:55:59;99733.94;;;24.29;67.24
20755;BME280;26385;48.470;7.938;2022-08-19T09:58:24;99741.34;;;24.43;67.38
20755;BME280;26385;48.470;7.938;2022-08-19T10:00:53;99743.06;;;24.44;66.20
20755;BME280;26385;48.470;7.938;2022-08-19T10:03:19;99747.25;;;24.50;65.92
20755;BME280;26385;48.470;7.938;2022-08-19T10:05:44;99740.63;;;24.60;66.30
20755;BME280;26385;48.470;7.938;2022-08-19T10:08:25;99738.50;;;24.68;65.26
20755;BME280;26385;48.470;7.938;2022-08-19T10:10:51;99735.28;;;24.80;64.92
20755;BME280;26385;48.470;7.938;2022-08-19T10:13:19;99736.28;;;24.98;65.30
20755;BME280;26385;48.470;7.938;2022-08-19T10:15:48;99738.47;;;25.09;64.01
20755;BME280;26385;48.470;7.938;2022-08-19T10:18:15;99739.25;;;25.11;63.89
20755;BME280;26385;48.470;7.938;2022-08-19T10:20:43;99744.34;;;25.15;63.77
20755;BME280;26385;48.470;7.938;2022-08-19T10:23:08;99742.41;;;25.19;63.04
20755;BME280;26385;48.470;7.938;2022-08-19T10:25:34;99747.44;;;25.25;63.43
20755;BME280;26385;48.470;7.938;2022-08-19T10:27:59;99750.38;;;25.38;62.82
20755;BME280;26385;48.470;7.938;2022-08-19T10:30:25;99733.75;;;25.34;62.89
20755;BME280;26385;48.470;7.938;2022-08-19T10:32:50;99738.97;;;25.36;63.38
20755;BME280;26385;48.470;7.938;2022-08-19T10:35:15;99742.72;;;25.32;63.29
20755;BME280;26385;48.470;7.938;2022-08-19T10:37:42;99734.19;;;25.25;63.60
20755;BME280;26385;48.470;7.938;2022-08-19T10:40:08;99736.91;;;25.23;63.01
20755;BME280;26385;48.470;7.938;2022-08-19T10:42:35;99737.38;;;25.13;63.41
20755;BME280;26385;48.470;7.938;2022-08-19T10:45:02;99732.50;;;25.04;63.16
20755;BME280;26385;48.470;7.938;2022-08-19T10:47:27;99733.03;;;24.91;63.86
20755;BME280;26385;48.470;7.938;2022-08-19T10:49:54;99728.94;;;24.84;64.52
20755;BME280;26385;48.470;7.938;2022-08-19T10:52:43;99724.84;;;24.77;64.58
20755;BME280;26385;48.470;7.938;2022-08-19T10:55:09;99728.50;;;24.75;65.47
20755;BME280;26385;48.470;7.938;2022-08-19T10:57:53;99725.63;;;24.79;64.62
20755;BME280;26385;48.470;7.938;2022-08-19T11:00:22;99718.69;;;24.77;64.90
20755;BME280;26385;48.470;7.938;2022-08-19T11:02:48;99714.09;;;24.80;65.32
20755;BME280;26385;48.470;7.938;2022-08-19T11:05:14;99716.63;;;24.83;65.13
20755;BME280;26385;48.470;7.938;2022-08-19T11:07:40;99711.09;;;24.88;65.23
20755;BME280;26385;48.470;7.938;2022-08-19T11:10:07;99712.72;;;24.92;64.82
20755;BME280;26385;48.470;7.938;2022-08-19T11:12:32;99707.91;;;24.81;63.38
20755;BME280;26385;48.470;7.938;2022-08-19T11:14:58;99715.69;;;24.84;63.21
20755;BME280;26385;48.470;7.938;2022-08-19T11:17:24;99714.69;;;24.87;63.25
20755;BME280;26385;48.470;7.938;2022-08-19T11:19:49;99709.19;;;24.91;63.03
20755;BME280;26385;48.470;7.938;2022-08-19T11:22:15;99708.84;;;24.99;63.18
20755;BME280;26385;48.470;7.938;2022-08-19T11:24:40;99708.66;;;25.04;62.65
20755;BME280;26385;48.470;7.938;2022-08-19T11:27:08;99716.50;;;25.07;62.77
20755;BME280;26385;48.470;7.938;2022-08-19T11:29:37;99711.22;;;25.05;62.95
20755;BME280;26385;48.470;7.938;2022-08-19T11:32:08;99721.91;;;25.04;62.50
20755;BME280;26385;48.470;7.938;2022-08-19T11:34:35;99714.78;;;25.06;62.71
20755;BME280;26385;48.470;7.938;2022-08-19T11:37:02;99716.34;;;25.10;62.92
20755;BME280;26385;48.470;7.938;2022-08-19T11:39:29;99717.25;;;25.09;61.68
20755;BME280;26385;48.470;7.938;2022-08-19T11:41:57;99717.13;;;25.12;61.65
20755;BME280;26385;48.470;7.938;2022-08-19T11:44:23;99717.84;;;25.15;61.65
20755;BME280;26385;48.470;7.938;2022-08-19T11:46:48;99710.59;;;25.19;61.42
20755;BME280;26385;48.470;7.938;2022-08-19T11:49:15;99715.75;;;25.22;61.10
20755;BME280;26385;48.470;7.938;2022-08-19T11:51:41;99698.56;;;25.31;61.61
20755;BME280;26385;48.470;7.938;2022-08-19T11:54:08;99709.53;;;25.42;61.56
20755;BME280;26385;48.470;7.938;2022-08-19T11:56:34;99695.19;;;25.46;61.34
20755;BME280;26385;48.470;7.938;2022-08-19T11:59:00;99696.00;;;25.48;60.67
20755;BME280;26385;48.470;7.938;2022-08-19T12:01:26;99696.84;;;25.48;59.66
20755;BME280;26385;48.470;7.938;2022-08-19T12:03:54;99693.94;;;25.53;59.78
20755;BME280;26385;48.470;7.938;2022-08-19T12:06:25;99691.09;;;25.58;58.88
20755;BME280;26385;48.470;7.938;2022-08-19T12:08:54;99685.91;;;25.54;58.18
20755;BME280;26385;48.470;7.938;2022-08-19T12:11:20;99684.97;;;25.55;58.52
20755;BME280;26385;48.470;7.938;2022-08-19T12:13:45;99691.34;;;25.70;58.64
20755;BME280;26385;48.470;7.938;2022-08-19T12:16:25;99692.63;;;25.80;57.07
20755;BME280;26385;48.470;7.938;2022-08-19T12:18:52;99690.53;;;25.87;56.92
20755;BME280;26385;48.470;7.938;2022-08-19T12:21:25;99690.00;;;25.98;56.73
20755;BME280;26385;48.470;7.938;2022-08-19T12:23:52;99686.28;;;26.02;56.50
20755;BME280;26385;48.470;7.938;2022-08-19T12:26:18;99690.72;;;26.01;56.49
20755;BME280;26385;48.470;7.938;2022-08-19T12:28:43;99693.00;;;26.09;56.50
20755;BME280;26385;48.470;7.938;2022-08-19T12:31:09;99685.41;;;26.36;55.41
20755;BME280;26385;48.470;7.938;2022-08-19T12:33:37;99678.78;;;26.78;53.78
20755;BME280;26385;48.470;7.938;2022-08-19T12:36:05;99677.25;;;27.23;52.81
20755;BME280;26385;48.470;7.938;2022-08-19T12:38:32;99674.16;;;27.62;51.37
20755;BME280;26385;48.470;7.938;2022-08-19T12:40:58;99675.50;;;27.85;50.96
20755;BME280;26385;48.470;7.938;2022-08-19T12:43:24;99681.13;;;28.10;53.21
20755;BME280;26385;48.470;7.938;2022-08-19T12:45:49;99676.34;;;28.15;54.04
20755;BME280;26385;48.470;7.938;2022-08-19T12:48:14;99688.94;;;27.97;53.70
20755;BME280;26385;48.470;7.938;2022-08-19T12:50:41;99682.56;;;27.70;54.78
20755;BME280;26385;48.470;7.938;2022-08-19T12:53:07;99673.28;;;28.07;53.77
20755;BME280;26385;48.470;7.938;2022-08-19T12:55:32;99669.09;;;28.33;53.59
20755;BME280;26385;48.470;7.938;2022-08-19T12:57:57;99678.56;;;28.67;52.07
20755;BME280;26385;48.470;7.938;2022-08-19T13:00:23;99678.47;;;28.69;51.11
20755;BME280;26385;48.470;7.938;2022-08-19T13:02:51;99667.13;;;28.79;50.38
20755;BME280;26385;48.470;7.938;2022-08-19T13:05:20;99661.72;;;28.52;50.98
20755;BME280;26385;48.470;7.938;2022-08-19T13:07:47;99671.88;;;28.74;50.15
20755;BME280;26385;48.470;7.938;2022-08-19T13:10:16;99665.41;;;28.64;49.87
20755;BME280;26385;48.470;7.938;2022-08-19T13:12:43;99672.47;;;28.65;49.12
20755;BME280;26385;48.470;7.938;2022-08-19T13:15:09;99674.34;;;28.49;49.94